createdAt,value
2022-08-08T00:00:56.574Z,20.90
2022-08-08T00:02:59.743Z,20.90
2022-08-08T00:05:44.016Z,20.80
2022-08-08T00:08:31.643Z,20.80
2022-08-08T00:11:14.803Z,20.80
2022-08-08T00:14:15.544Z,20.80
2022-08-08T00:16:47.325Z,20.70
2022-08-08T00:19:28.828Z,20.70
2022-08-08T00:22:06.170Z,20.70
2022-08-08T00:24:45.999Z,20.70
2022-08-08T00:27:21.859Z,20.70
2022-08-08T00:29:58.213Z,20.60
2022-08-08T00:32:34.908Z,20.60
2022-08-08T00:35:37.379Z,20.60
2022-08-08T00:38:51.414Z,20.60
2022-08-08T00:42:07.841Z,20.60
2022-08-08T00:45:04.724Z,20.60
2022-08-08T00:48:39.045Z,20.50
2022-08-08T00:55:08.912Z,20.50
2022-08-08T00:58:12.477Z,20.50
2022-08-08T01:00:53.547Z,20.40
2022-08-08T01:28:18.802Z,20.20
2022-08-08T01:32:15.569Z,20.20
2022-08-08T01:34:49.770Z,20.20
2022-08-08T01:37:57.849Z,20.20
2022-08-08T01:40:31.471Z,20.10
2022-08-08T01:46:52.171Z,20.10
2022-08-08T01:49:37.608Z,20.00
2022-08-08T01:53:05.209Z,20.00
2022-08-08T01:55:26.450Z,20.00
2022-08-08T01:58:38.770Z,20.00
2022-08-08T02:01:18.691Z,20.00
2022-08-08T02:04:16.316Z,19.90
2022-08-08T02:07:04.025Z,19.90
2022-08-08T02:10:03.424Z,19.90
2022-08-08T02:12:51.135Z,19.90
2022-08-08T02:15:30.487Z,19.90
2022-08-08T02:18:12.332Z,19.90
2022-08-08T02:21:08.572Z,19.90
2022-08-08T02:23:47.277Z,19.90
2022-08-08T02:26:23.184Z,19.90
2022-08-08T02:29:14.889Z,19.90
2022-08-08T02:32:08.587Z,19.90
2022-08-08T02:35:10.655Z,19.80
2022-08-08T02:37:58.129Z,19.80
2022-08-08T02:40:39.382Z,19.80
2022-08-08T02:44:42.313Z,19.80
2022-08-08T02:47:03.093Z,19.80
2022-08-08T02:50:17.993Z,19.70
2022-08-08T02:53:16.005Z,19.70
2022-08-08T02:56:09.655Z,19.70
2022-08-08T02:59:35.867Z,19.70
2022-08-08T03:02:56.411Z,19.70
2022-08-08T03:06:09.208Z,19.60
2022-08-08T03:09:12.389Z,19.60
2022-08-08T03:12:36.649Z,19.60
2022-08-08T03:16:00.906Z,19.60
2022-08-08T03:18:34.161Z,19.60
2022-08-08T03:21:09.758Z,19.60
2022-08-08T03:23:57.312Z,19.50
2022-08-08T03:26:42.160Z,19.50
2022-08-08T03:29:20.980Z,19.50
2022-08-08T03:32:27.467Z,19.50
2022-08-08T03:34:58.014Z,19.50
2022-08-08T03:38:53.718Z,19.50
2022-08-08T03:40:30.525Z,19.50
2022-08-08T03:43:22.842Z,19.40
2022-08-08T03:46:05.853Z,19.40
2022-08-08T03:49:54.861Z,19.40
2022-08-08T03:51:50.599Z,19.40
2022-08-08T03:54:51.558Z,19.40
2022-08-08T03:58:30.034Z,19.40
2022-08-08T04:00:18.163Z,19.30
2022-08-08T04:02:56.359Z,19.30
2022-08-08T04:05:28.888Z,19.30
2022-08-08T04:07:58.211Z,19.30
2022-08-08T04:10:32.121Z,19.30
2022-08-08T04:13:03.728Z,19.30
2022-08-08T04:16:03.595Z,19.30
2022-08-08T04:18:38.180Z,19.30
2022-08-08T04:21:12.837Z,19.20
2022-08-08T04:24:11.731Z,19.20
2022-08-08T04:26:35.467Z,19.20
2022-08-08T04:29:18.236Z,19.20
2022-08-08T04:31:58.552Z,19.20
2022-08-08T04:34:32.418Z,19.20
2022-08-08T04:37:12.305Z,19.20
2022-08-08T04:40:04.199Z,19.20
2022-08-08T04:42:31.561Z,19.20
2022-08-08T04:45:02.244Z,19.20
2022-08-08T04:47:30.842Z,19.20
2022-08-08T04:50:04.735Z,19.20
2022-08-08T04:52:33.909Z,19.20
2022-08-08T04:55:04.532Z,19.20
2022-08-08T04:57:34.850Z,19.30
2022-08-08T05:00:05.503Z,19.30
2022-08-08T05:02:33.893Z,19.30
2022-08-08T05:05:02.380Z,19.30
2022-08-08T05:07:38.044Z,19.30
2022-08-08T05:10:12.500Z,19.30
2022-08-08T05:12:53.351Z,19.30
2022-08-08T05:16:48.401Z,19.30
2022-08-08T05:18:20.723Z,19.40
2022-08-08T05:20:50.238Z,19.40
2022-08-08T05:23:20.714Z,19.40
2022-08-08T05:25:49.969Z,19.40
2022-08-08T05:28:56.840Z,19.40
2022-08-08T05:31:19.110Z,19.50
2022-08-08T05:33:55.780Z,19.50
2022-08-08T05:36:28.035Z,19.50
2022-08-08T05:38:59.638Z,19.60
2022-08-08T05:41:28.207Z,19.60
2022-08-08T05:44:04.852Z,19.60
2022-08-08T05:46:35.549Z,19.60
2022-08-08T05:49:11.101Z,19.60
2022-08-08T05:51:48.627Z,19.60
2022-08-08T05:54:28.687Z,19.70
2022-08-08T05:57:12.512Z,19.70
2022-08-08T05:59:58.878Z,19.70
2022-08-08T06:02:52.872Z,19.70
2022-08-08T06:05:34.197Z,19.80
2022-08-08T06:08:09.581Z,19.80
2022-08-08T06:10:50.548Z,19.80
2022-08-08T06:13:22.584Z,19.80
2022-08-08T06:15:55.063Z,19.90
2022-08-08T06:18:26.251Z,19.90
2022-08-08T06:20:57.265Z,19.90
2022-08-08T06:23:52.548Z,20.00
2022-08-08T06:26:38.349Z,20.00
2022-08-08T06:29:18.604Z,20.10
2022-08-08T06:32:09.839Z,20.10
2022-08-08T06:34:52.341Z,20.20
2022-08-08T06:37:37.367Z,20.20
2022-08-08T06:40:14.328Z,20.20
2022-08-08T06:42:55.291Z,20.20
2022-08-08T06:45:24.762Z,20.30
2022-08-08T06:48:01.454Z,20.30
2022-08-08T06:50:33.472Z,20.30
2022-08-08T06:53:14.521Z,20.30
2022-08-08T06:56:02.697Z,20.40
2022-08-08T06:58:33.571Z,20.40
2022-08-08T07:01:52.801Z,20.40
2022-08-08T07:04:39.499Z,20.40
2022-08-08T07:06:58.103Z,20.50
2022-08-08T07:09:41.757Z,20.50
2022-08-08T07:12:32.648Z,20.60
2022-08-08T07:15:05.802Z,20.60
2022-08-08T07:17:56.537Z,20.60
2022-08-08T07:20:30.741Z,20.70
2022-08-08T07:23:04.769Z,20.70
2022-08-08T07:25:34.987Z,20.70
2022-08-08T07:28:18.605Z,20.80
2022-08-08T07:30:47.881Z,20.80
2022-08-08T07:33:18.874Z,20.80
2022-08-08T07:35:48.599Z,20.80
2022-08-08T07:38:25.463Z,20.90
2022-08-08T07:40:59.190Z,20.90
2022-08-08T07:43:36.940Z,21.00
2022-08-08T07:46:23.100Z,21.00
2022-08-08T07:48:55.435Z,21.00
2022-08-08T07:51:45.589Z,21.00
2022-08-08T07:54:26.435Z,21.00
2022-08-08T07:57:09.037Z,21.10
2022-08-08T07:59:48.526Z,21.10
2022-08-08T08:02:34.493Z,21.20
2022-08-08T08:05:15.266Z,21.20
2022-08-08T08:07:46.066Z,21.20
2022-08-08T08:10:18.586Z,21.30
2022-08-08T08:13:25.989Z,21.40
2022-08-08T08:16:11.392Z,21.40
2022-08-08T08:18:55.674Z,21.50
2022-08-08T08:21:44.814Z,21.50
2022-08-08T08:24:18.619Z,21.60
2022-08-08T08:26:52.780Z,21.60
2022-08-08T08:29:24.144Z,21.70
2022-08-08T08:31:58.341Z,21.70
2022-08-08T08:34:32.465Z,21.80
2022-08-08T08:37:07.459Z,21.80
2022-08-08T08:39:59.537Z,21.80
2022-08-08T08:42:29.136Z,21.80
2022-08-08T08:45:20.882Z,21.80
2022-08-08T08:47:54.290Z,21.80
2022-08-08T08:50:32.515Z,21.80
2022-08-08T08:53:54.991Z,21.80
2022-08-08T08:56:01.168Z,21.80
2022-08-08T08:58:37.937Z,21.80
2022-08-08T09:01:09.829Z,21.90
2022-08-08T09:03:47.217Z,21.90
2022-08-08T09:06:26.622Z,21.90
2022-08-08T09:09:07.488Z,21.90
2022-08-08T09:12:01.677Z,21.90
2022-08-08T09:14:42.715Z,21.90
2022-08-08T09:17:18.894Z,22.00
2022-08-08T09:21:58.679Z,22.00
2022-08-08T09:22:39.450Z,22.00
2022-08-08T09:25:10.388Z,22.00
2022-08-08T09:27:55.847Z,22.00
2022-08-08T09:30:31.051Z,22.00
2022-08-08T09:33:55.561Z,22.00
2022-08-08T09:35:53.252Z,22.00
2022-08-08T09:38:32.978Z,22.00
2022-08-08T09:41:06.140Z,22.00
2022-08-08T09:44:06.387Z,22.00
2022-08-08T09:46:40.064Z,22.10
2022-08-08T09:49:41.042Z,22.10
2022-08-08T09:52:08.055Z,22.10
2022-08-08T09:54:44.719Z,22.10
2022-08-08T09:57:17.515Z,22.10
2022-08-08T10:00:28.738Z,22.20
2022-08-08T10:02:45.035Z,22.30
2022-08-08T10:05:25.346Z,22.30
2022-08-08T10:08:01.637Z,22.30
2022-08-08T10:10:32.525Z,22.40
2022-08-08T10:13:06.132Z,22.50
2022-08-08T10:16:00.381Z,22.50
2022-08-08T10:18:33.556Z,22.60
2022-08-08T10:21:23.153Z,22.60
2022-08-08T10:23:58.246Z,22.60
2022-08-08T10:26:57.293Z,22.70
2022-08-08T10:29:25.133Z,22.80
2022-08-08T10:32:16.497Z,22.70
2022-08-08T10:34:58.838Z,22.70
2022-08-08T10:37:30.788Z,22.80
2022-08-08T10:40:06.939Z,22.80
2022-08-08T10:42:37.546Z,22.80
2022-08-08T10:45:09.197Z,22.90
2022-08-08T10:47:44.134Z,22.90
2022-08-08T10:50:18.262Z,22.90
2022-08-08T10:52:46.644Z,22.90
2022-08-08T10:55:39.429Z,22.90
2022-08-08T10:58:07.825Z,23.00
2022-08-08T11:00:48.614Z,22.90
2022-08-08T11:03:36.931Z,22.90
2022-08-08T11:06:14.077Z,23.00
2022-08-08T11:08:50.137Z,23.00
2022-08-08T11:11:31.931Z,23.00
2022-08-08T11:14:16.275Z,23.00
2022-08-08T11:16:46.604Z,23.00
2022-08-08T11:19:17.192Z,23.00
2022-08-08T11:21:55.500Z,23.10
2022-08-08T11:24:29.144Z,23.10
2022-08-08T11:27:10.375Z,23.10
2022-08-08T11:30:04.282Z,23.00
2022-08-08T11:32:39.772Z,23.10
2022-08-08T11:35:23.533Z,23.10
2022-08-08T11:38:35.529Z,23.10
2022-08-08T11:40:52.817Z,23.10
2022-08-08T11:43:23.751Z,23.10
2022-08-08T11:46:09.931Z,23.20
2022-08-08T11:48:44.843Z,23.20
2022-08-08T11:51:29.848Z,23.30
2022-08-08T11:54:09.778Z,23.30
2022-08-08T11:56:56.372Z,23.40
2022-08-08T11:59:58.421Z,23.40
2022-08-08T12:02:33.477Z,23.50
2022-08-08T12:05:07.371Z,23.50
2022-08-08T12:07:51.263Z,23.60
2022-08-08T12:10:24.632Z,23.60
2022-08-08T12:13:02.313Z,23.60
2022-08-08T12:15:41.782Z,23.60
2022-08-08T12:18:21.046Z,23.50
2022-08-08T12:20:50.594Z,23.40
2022-08-08T12:23:42.634Z,23.40
2022-08-08T12:26:27.279Z,23.30
2022-08-08T12:29:21.575Z,23.40
2022-08-08T12:32:02.698Z,23.50
2022-08-08T12:34:54.597Z,23.60
2022-08-08T12:37:40.776Z,23.60
2022-08-08T12:40:23.023Z,23.70
2022-08-08T12:42:55.643Z,23.70
2022-08-08T12:45:58.996Z,23.80
2022-08-08T12:48:37.847Z,23.90
2022-08-08T12:51:10.866Z,24.00
2022-08-08T12:53:59.496Z,24.00
2022-08-08T12:56:35.423Z,24.10
2022-08-08T12:59:16.185Z,24.20
2022-08-08T13:01:52.883Z,24.40
2022-08-08T13:04:24.386Z,24.50
2022-08-08T13:06:58.769Z,24.70
2022-08-08T13:10:04.875Z,24.90
2022-08-08T13:12:39.577Z,25.10
2022-08-08T13:15:13.990Z,25.30
2022-08-08T13:17:54.029Z,25.40
2022-08-08T13:20:30.900Z,25.50
2022-08-08T13:23:31.315Z,25.50
2022-08-08T13:25:58.730Z,25.60
2022-08-08T13:28:32.441Z,25.70
2022-08-08T13:31:04.022Z,25.90
2022-08-08T13:33:41.914Z,26.00
2022-08-08T13:36:11.820Z,26.10
2022-08-08T13:38:40.944Z,26.20
2022-08-08T13:41:16.538Z,26.10
2022-08-08T13:43:47.098Z,26.20
2022-08-08T13:46:28.502Z,26.10
2022-08-08T13:49:12.122Z,26.20
2022-08-08T13:52:00.987Z,26.20
2022-08-08T13:54:31.828Z,26.40
2022-08-08T13:57:08.585Z,26.50
2022-08-08T13:59:47.831Z,26.60
2022-08-08T14:02:31.286Z,26.50
2022-08-08T14:05:09.258Z,26.50
2022-08-08T14:07:52.557Z,26.30
2022-08-08T14:10:32.995Z,26.30
2022-08-08T14:13:30.479Z,26.40
2022-08-08T14:16:03.172Z,26.50
2022-08-08T14:18:51.881Z,26.70
2022-08-08T14:21:22.336Z,26.80
2022-08-08T14:24:04.402Z,27.00
2022-08-08T14:26:42.923Z,27.10
2022-08-08T14:29:28.300Z,27.30
2022-08-08T14:32:09.344Z,27.30
2022-08-08T14:34:45.403Z,27.30
2022-08-08T14:37:17.890Z,27.30
2022-08-08T14:39:53.627Z,27.30
2022-08-08T14:42:30.574Z,27.40
2022-08-08T14:45:01.987Z,27.60
2022-08-08T14:47:36.390Z,27.70
2022-08-08T14:50:15.240Z,27.90
2022-08-08T14:52:54.124Z,28.10
2022-08-08T14:55:35.300Z,28.20
2022-08-08T14:58:11.942Z,28.40
2022-08-08T15:00:44.695Z,28.50
2022-08-08T15:03:16.068Z,28.50
2022-08-08T15:05:53.232Z,28.40
2022-08-08T15:08:35.280Z,28.40
2022-08-08T15:11:09.498Z,28.40
2022-08-08T15:14:00.500Z,28.40
2022-08-08T15:16:28.686Z,28.50
2022-08-08T15:18:56.767Z,28.60
2022-08-08T15:21:30.391Z,28.80
2022-08-08T15:23:58.785Z,28.90
2022-08-08T15:26:29.218Z,29.10
2022-08-08T15:28:57.783Z,29.20
2022-08-08T15:32:03.712Z,29.20
2022-08-08T15:34:29.281Z,29.10
2022-08-08T15:37:03.338Z,29.00
2022-08-08T15:39:38.461Z,28.70
2022-08-08T15:42:13.233Z,28.40
2022-08-08T15:44:46.863Z,28.20
2022-08-08T15:47:19.140Z,27.90
2022-08-08T15:49:48.924Z,27.80
2022-08-08T15:52:21.618Z,27.50
2022-08-08T15:54:51.852Z,27.40
2022-08-08T15:57:21.605Z,27.20
2022-08-08T16:00:05.259Z,27.10
2022-08-08T16:02:43.757Z,27.00
2022-08-08T16:05:14.200Z,27.10
2022-08-08T16:07:51.152Z,27.30
2022-08-08T16:13:15.126Z,27.40
2022-08-08T16:13:30.487Z,27.50
2022-08-08T16:16:09.092Z,27.60
2022-08-08T16:18:44.614Z,27.60
2022-08-08T16:21:26.869Z,27.60
2022-08-08T16:23:58.724Z,27.50
2022-08-08T16:26:33.777Z,27.60
2022-08-08T16:29:08.200Z,27.80
2022-08-08T16:31:40.850Z,28.00
2022-08-08T16:34:10.180Z,28.10
2022-08-08T16:36:38.725Z,28.30
2022-08-08T16:39:28.161Z,28.60
2022-08-08T16:42:01.400Z,28.90
2022-08-08T16:44:33.476Z,29.10
2022-08-08T16:47:22.094Z,29.30
2022-08-08T16:50:14.098Z,29.60
2022-08-08T16:55:04.910Z,30.00
2022-08-08T16:55:53.852Z,30.20
2022-08-08T16:58:25.718Z,30.70
2022-08-08T17:00:55.477Z,31.00
2022-08-08T17:03:58.549Z,31.30
2022-08-08T17:06:35.379Z,31.40
2022-08-08T17:09:02.847Z,31.60
2022-08-08T17:11:39.221Z,31.90
2022-08-08T17:14:18.747Z,32.00
2022-08-08T17:16:51.829Z,32.10
2022-08-08T17:19:30.254Z,32.20
2022-08-08T17:22:00.907Z,32.30
2022-08-08T17:24:31.186Z,32.30
2022-08-08T17:27:02.135Z,32.30
2022-08-08T17:29:34.033Z,32.40
2022-08-08T17:32:02.740Z,32.30
2022-08-08T17:34:49.473Z,32.10
2022-08-08T17:37:19.791Z,31.90
2022-08-08T17:40:06.111Z,31.50
2022-08-08T17:42:37.432Z,31.10
2022-08-08T17:45:06.643Z,30.50
2022-08-08T17:47:37.795Z,30.10
2022-08-08T17:50:10.312Z,29.70
2022-08-08T17:52:43.445Z,29.30
2022-08-08T17:56:06.270Z,28.90
2022-08-08T17:58:05.130Z,28.50
2022-08-08T18:00:33.104Z,28.10
2022-08-08T18:03:08.627Z,27.80
2022-08-08T18:05:48.341Z,27.60
2022-08-08T18:08:24.434Z,27.30
2022-08-08T18:11:07.772Z,27.00
2022-08-08T18:13:42.073Z,26.60
2022-08-08T18:16:11.223Z,26.50
2022-08-08T18:18:42.870Z,26.30
2022-08-08T18:21:35.486Z,26.10
2022-08-08T18:24:02.198Z,26.00
2022-08-08T18:26:30.989Z,25.80
2022-08-08T18:29:02.720Z,25.70
2022-08-08T18:31:34.026Z,25.60
2022-08-08T18:34:25.220Z,25.50
2022-08-08T18:36:55.693Z,25.40
2022-08-08T18:39:27.761Z,25.30
2022-08-08T18:42:02.978Z,25.20
2022-08-08T18:44:36.105Z,25.20
2022-08-08T18:47:05.198Z,25.10
2022-08-08T18:49:58.071Z,25.00
2022-08-08T18:52:23.745Z,25.00
2022-08-08T18:54:59.122Z,24.90
2022-08-08T18:57:31.382Z,24.90
2022-08-08T19:00:01.587Z,24.80
2022-08-08T19:02:30.191Z,24.80
2022-08-08T19:04:58.910Z,24.70
2022-08-08T19:07:29.781Z,24.70
2022-08-08T19:10:14.411Z,24.60
2022-08-08T19:12:50.053Z,24.60
2022-08-08T19:15:26.123Z,24.60
2022-08-08T19:18:32.894Z,24.50
2022-08-08T19:20:50.978Z,24.40
2022-08-08T19:23:21.579Z,24.40
2022-08-08T19:26:20.081Z,24.40
2022-08-08T19:28:41.302Z,24.30
2022-08-08T19:31:13.150Z,24.30
2022-08-08T19:34:04.880Z,24.30
2022-08-08T19:36:35.034Z,24.30
2022-08-08T19:39:03.077Z,24.20
2022-08-08T19:41:34.021Z,24.20
2022-08-08T19:44:12.544Z,24.10
2022-08-08T19:46:42.847Z,24.20
2022-08-08T19:49:13.050Z,24.10
2022-08-08T19:51:43.634Z,24.10
2022-08-08T19:54:13.665Z,24.00
2022-08-08T19:56:48.926Z,24.00
2022-08-08T19:59:22.134Z,24.00
2022-08-08T20:02:02.988Z,24.00
2022-08-08T20:04:33.240Z,23.90
2022-08-08T20:07:05.517Z,23.90
2022-08-08T20:09:55.999Z,23.90
2022-08-08T20:12:32.142Z,23.90
2022-08-08T20:15:14.497Z,23.90
2022-08-08T20:17:48.642Z,23.90
2022-08-08T20:20:20.513Z,23.90
2022-08-08T20:22:53.938Z,23.80
2022-08-08T20:25:29.611Z,23.90
2022-08-08T20:28:02.174Z,23.80
2022-08-08T20:30:52.665Z,23.80
2022-08-08T20:35:58.959Z,23.70
2022-08-08T20:38:32.990Z,23.70
2022-08-08T20:41:05.595Z,23.70
2022-08-08T20:43:44.183Z,23.70
2022-08-08T20:46:20.829Z,23.70
2022-08-08T20:48:53.137Z,23.70
2022-08-08T20:51:21.470Z,23.70
2022-08-08T20:54:01.104Z,23.60
2022-08-08T20:56:35.217Z,23.60
2022-08-08T20:59:05.986Z,23.60
2022-08-08T21:02:06.575Z,23.50
2022-08-08T21:04:27.679Z,23.50
2022-08-08T21:06:56.395Z,23.50
2022-08-08T21:09:31.681Z,23.40
2022-08-08T21:12:12.654Z,23.40
2022-08-08T21:14:41.121Z,23.40
2022-08-08T21:17:17.295Z,23.40
2022-08-08T21:19:49.029Z,23.30
2022-08-08T21:22:17.191Z,23.30
2022-08-08T21:24:53.318Z,23.20
2022-08-08T21:28:06.090Z,23.20
2022-08-08T21:30:18.198Z,23.20
2022-08-08T21:32:52.037Z,23.10
2022-08-08T21:36:18.150Z,23.10
2022-08-08T21:38:17.076Z,23.10
2022-08-08T21:40:55.136Z,23.00
2022-08-08T21:43:32.912Z,23.00
2022-08-08T21:48:07.326Z,23.00
2022-08-08T21:48:53.197Z,23.00
2022-08-08T21:54:18.118Z,22.90
2022-08-08T21:54:53.628Z,22.90
2022-08-08T21:57:08.244Z,22.90
2022-08-08T22:00:03.257Z,22.80
2022-08-08T22:02:27.886Z,22.80
2022-08-08T22:04:59.168Z,22.80
2022-08-08T22:07:40.203Z,22.80
2022-08-08T22:10:18.401Z,22.70
2022-08-08T22:13:18.694Z,22.70
2022-08-08T22:15:58.425Z,22.70
2022-08-08T22:18:29.083Z,22.70
2022-08-08T22:21:10.757Z,22.60
2022-08-08T22:23:50.542Z,22.60
2022-08-08T22:26:29.484Z,22.60
2022-08-08T22:29:04.842Z,22.60
2022-08-08T22:31:58.398Z,22.60
2022-08-08T22:34:32.212Z,22.50
2022-08-08T22:37:00.514Z,22.50
2022-08-08T22:39:39.496Z,22.50
2022-08-08T22:42:14.548Z,22.50
2022-08-08T22:44:55.514Z,22.40
2022-08-08T22:47:23.617Z,22.40
2022-08-08T22:50:02.679Z,22.40
2022-08-08T22:52:33.764Z,22.40
2022-08-08T22:55:07.613Z,22.40
2022-08-08T22:57:44.276Z,22.40
2022-08-08T23:00:18.651Z,22.30
2022-08-08T23:02:50.043Z,22.30
2022-08-08T23:05:21.557Z,22.30
2022-08-08T23:07:57.207Z,22.30
2022-08-08T23:10:27.917Z,22.30
2022-08-08T23:12:56.245Z,22.20
2022-08-08T23:16:41.494Z,22.20
2022-08-08T23:18:15.158Z,22.20
2022-08-08T23:20:44.953Z,22.20
2022-08-08T23:23:22.959Z,22.20
2022-08-08T23:25:52.602Z,22.10
2022-08-08T23:28:24.678Z,22.20
2022-08-08T23:30:52.895Z,22.10
2022-08-08T23:34:15.489Z,22.10
2022-08-08T23:36:11.561Z,22.10
2022-08-08T23:38:41.943Z,22.10
2022-08-08T23:41:23.094Z,22.10
2022-08-08T23:43:54.292Z,22.00
2022-08-08T23:49:07.764Z,22.00
2022-08-08T23:49:15.191Z,22.00
2022-08-08T23:52:05.069Z,22.00
2022-08-08T23:54:41.306Z,22.00
2022-08-08T23:57:27.174Z,22.00
